createdAt,value
2022-08-26T00:00:48.476Z,8.40
2022-08-26T00:01:48.514Z,7.20
2022-08-26T00:02:48.570Z,11.00
2022-08-26T00:03:48.426Z,7.40
2022-08-26T00:04:48.386Z,7.20
2022-08-26T00:05:48.381Z,9.00
2022-08-26T00:06:48.370Z,7.70
2022-08-26T00:07:48.341Z,12.10
2022-08-26T00:08:48.334Z,7.90
2022-08-26T00:09:48.318Z,8.00
2022-08-26T00:10:48.327Z,9.10
2022-08-26T00:11:48.290Z,7.50
2022-08-26T00:12:48.296Z,10.70
2022-08-26T00:13:49.476Z,8.10
2022-08-26T00:14:48.254Z,8.30
2022-08-26T00:15:48.251Z,7.90
2022-08-26T00:16:49.045Z,8.10
2022-08-26T00:17:48.214Z,8.70
2022-08-26T00:18:48.200Z,8.90
2022-08-26T00:19:48.187Z,8.50
2022-08-26T00:20:48.639Z,9.30
2022-08-26T00:21:48.725Z,9.70
2022-08-26T00:22:48.150Z,12.40
2022-08-26T00:23:48.137Z,14.70
2022-08-26T00:24:48.208Z,9.80
2022-08-26T00:25:48.142Z,13.70
2022-08-26T00:26:48.111Z,12.20
2022-08-26T00:27:48.082Z,11.90
2022-08-26T00:28:48.079Z,13.10
2022-08-26T00:29:48.060Z,13.80
2022-08-26T00:30:48.059Z,14.80
2022-08-26T00:31:48.071Z,13.60
2022-08-26T00:32:48.023Z,24.80
2022-08-26T00:33:48.007Z,18.50
2022-08-26T00:34:54.033Z,17.00
2022-08-26T00:35:48.027Z,20.60
2022-08-26T00:36:51.914Z,15.60
2022-08-26T00:37:48.632Z,15.20
2022-08-26T00:38:48.069Z,14.00
2022-08-26T00:39:48.014Z,13.70
2022-08-26T00:40:47.938Z,15.10
2022-08-26T00:41:47.935Z,15.80
2022-08-26T00:42:47.906Z,13.10
2022-08-26T00:43:48.149Z,14.50
2022-08-26T00:44:47.887Z,15.50
2022-08-26T00:45:47.967Z,15.20
2022-08-26T00:46:47.900Z,15.60
2022-08-26T00:47:47.859Z,16.20
2022-08-26T00:48:47.828Z,23.70
2022-08-26T00:49:47.829Z,18.50
2022-08-26T00:50:47.866Z,17.30
2022-08-26T00:51:47.803Z,19.10
2022-08-26T00:52:48.264Z,23.20
2022-08-26T00:53:47.768Z,29.00
2022-08-26T00:54:47.753Z,32.00
2022-08-26T00:55:47.768Z,36.80
2022-08-26T00:56:47.728Z,38.10
2022-08-26T00:57:47.715Z,34.00
2022-08-26T00:58:47.699Z,32.80
2022-08-26T00:59:47.867Z,37.40
2022-08-26T01:00:47.745Z,40.80
2022-08-26T01:01:47.735Z,39.30
2022-08-26T01:02:47.679Z,49.90
2022-08-26T01:03:47.642Z,51.80
2022-08-26T01:04:47.620Z,53.80
2022-08-26T01:05:47.625Z,52.30
2022-08-26T01:06:47.592Z,62.40
2022-08-26T01:07:47.596Z,53.30
2022-08-26T01:08:47.565Z,57.80
2022-08-26T01:09:47.556Z,58.60
2022-08-26T01:10:47.575Z,64.90
2022-08-26T01:11:47.547Z,63.10
2022-08-26T01:12:47.532Z,64.20
2022-08-26T01:13:47.520Z,66.00
2022-08-26T01:14:47.493Z,67.30
2022-08-26T01:15:47.509Z,74.90
2022-08-26T01:16:47.500Z,76.60
2022-08-26T01:17:47.532Z,74.00
2022-08-26T01:18:47.455Z,72.30
2022-08-26T01:19:47.426Z,78.50
2022-08-26T01:20:47.451Z,70.80
2022-08-26T01:21:47.403Z,76.00
2022-08-26T01:22:47.409Z,79.90
2022-08-26T01:23:47.371Z,81.40
2022-08-26T01:24:47.375Z,87.10
2022-08-26T01:25:47.344Z,87.70
2022-08-26T01:26:47.387Z,88.30
2022-08-26T01:29:55.432Z,88.60
2022-08-26T01:30:55.945Z,90.90
2022-08-26T01:31:56.017Z,91.90
2022-08-26T01:32:55.888Z,89.10
2022-08-26T01:33:55.892Z,93.30
2022-08-26T01:34:55.854Z,94.60
2022-08-26T01:35:55.857Z,95.90
2022-08-26T01:36:55.855Z,97.10
2022-08-26T01:37:55.822Z,98.30
2022-08-26T01:38:55.838Z,94.10
2022-08-26T01:39:55.812Z,102.10
2022-08-26T01:40:55.794Z,103.00
2022-08-26T01:41:55.778Z,99.70
2022-08-26T01:42:55.745Z,108.10
2022-08-26T01:43:55.733Z,104.80
2022-08-26T01:44:55.736Z,106.40
2022-08-26T01:45:55.754Z,109.30
2022-08-26T01:46:55.717Z,108.10
2022-08-26T01:47:56.749Z,106.70
2022-08-26T01:48:55.692Z,107.80
2022-08-26T01:49:55.697Z,106.20
2022-08-26T01:50:55.672Z,104.90
2022-08-26T01:51:55.651Z,111.40
2022-08-26T01:52:55.633Z,104.90
2022-08-26T01:53:55.606Z,107.10
2022-08-26T01:54:55.607Z,115.10
2022-08-26T01:55:55.602Z,106.80
2022-08-26T01:56:55.574Z,110.60
2022-08-26T01:57:56.330Z,108.10
2022-08-26T01:58:55.541Z,109.80
2022-08-26T01:59:55.529Z,114.00
2022-08-26T02:00:55.582Z,117.40
2022-08-26T02:01:55.512Z,120.10
2022-08-26T02:02:55.491Z,117.40
2022-08-26T02:03:55.475Z,117.60
2022-08-26T02:04:55.524Z,125.20
2022-08-26T02:05:55.494Z,122.60
2022-08-26T02:06:55.441Z,116.10
2022-08-26T02:07:55.426Z,122.60
2022-08-26T02:08:55.422Z,117.20
2022-08-26T02:09:55.413Z,127.60
2022-08-26T02:10:55.404Z,118.30
2022-08-26T02:11:55.385Z,127.50
2022-08-26T02:12:55.378Z,125.00
2022-08-26T02:13:55.352Z,124.30
2022-08-26T02:14:55.335Z,118.10
2022-08-26T02:15:55.440Z,128.00
2022-08-26T02:16:55.312Z,121.90
2022-08-26T02:17:55.307Z,119.40
2022-08-26T02:18:55.289Z,124.60
2022-08-26T02:19:55.313Z,122.00
2022-08-26T02:20:55.278Z,118.70
2022-08-26T02:21:55.243Z,119.50
2022-08-26T02:22:55.235Z,118.50
2022-08-26T02:23:56.043Z,119.10
2022-08-26T02:24:55.212Z,123.80
2022-08-26T02:25:55.236Z,126.20
2022-08-26T02:26:55.221Z,124.40
2022-08-26T02:29:55.763Z,123.70
2022-08-26T02:30:56.771Z,121.10
2022-08-26T02:31:56.740Z,122.50
2022-08-26T02:32:56.725Z,123.30
2022-08-26T02:33:56.728Z,119.20
2022-08-26T02:34:56.699Z,123.40
2022-08-26T02:35:56.705Z,128.10
2022-08-26T02:36:56.673Z,122.40
2022-08-26T02:37:56.656Z,120.50
2022-08-26T02:38:56.650Z,120.90
2022-08-26T02:39:56.650Z,120.10
2022-08-26T02:40:56.643Z,120.10
2022-08-26T02:41:56.611Z,126.10
2022-08-26T02:42:57.065Z,116.80
2022-08-26T02:43:56.591Z,119.30
2022-08-26T02:44:56.566Z,122.60
2022-08-26T02:45:56.569Z,111.40
2022-08-26T02:46:56.587Z,118.60
2022-08-26T02:47:56.547Z,118.30
2022-08-26T02:48:56.525Z,121.40
2022-08-26T02:49:56.520Z,121.80
2022-08-26T02:50:56.515Z,117.60
2022-08-26T02:51:56.492Z,120.90
2022-08-26T02:52:56.464Z,118.50
2022-08-26T02:53:56.446Z,123.30
2022-08-26T02:54:56.490Z,122.70
2022-08-26T02:55:56.436Z,117.60
2022-08-26T02:56:56.441Z,120.00
2022-08-26T02:57:56.421Z,117.10
2022-08-26T02:58:56.384Z,119.30
2022-08-26T02:59:56.388Z,122.90
2022-08-26T03:00:56.435Z,119.30
2022-08-26T03:01:56.434Z,121.60
2022-08-26T03:02:56.326Z,115.20
2022-08-26T03:03:56.308Z,120.40
2022-08-26T03:04:57.529Z,113.20
2022-08-26T03:05:56.308Z,115.40
2022-08-26T03:06:56.313Z,117.50
2022-08-26T03:07:56.267Z,116.70
2022-08-26T03:08:56.258Z,117.10
2022-08-26T03:09:56.231Z,113.40
2022-08-26T03:10:56.232Z,112.20
2022-08-26T03:11:56.230Z,113.00
2022-08-26T03:12:56.214Z,112.50
2022-08-26T03:13:56.179Z,114.70
2022-08-26T03:14:56.218Z,123.60
2022-08-26T03:15:56.256Z,113.20
2022-08-26T03:16:56.153Z,113.10
2022-08-26T03:17:56.146Z,107.90
2022-08-26T03:18:56.187Z,113.00
2022-08-26T03:19:57.295Z,106.00
2022-08-26T03:20:56.112Z,106.30
2022-08-26T03:21:57.960Z,104.70
2022-08-26T03:22:56.106Z,110.10
2022-08-26T03:23:56.074Z,105.10
2022-08-26T03:24:56.031Z,111.40
2022-08-26T03:25:56.084Z,105.40
2022-08-26T03:26:56.014Z,101.70
2022-08-26T03:27:55.996Z,102.00
2022-08-26T03:28:55.994Z,104.10
2022-08-26T03:29:55.972Z,113.10
2022-08-26T03:30:55.994Z,99.50
2022-08-26T03:31:55.937Z,101.90
2022-08-26T03:32:55.942Z,102.70
2022-08-26T03:33:59.201Z,94.10
2022-08-26T03:34:55.956Z,96.20
2022-08-26T03:35:55.914Z,91.90
2022-08-26T03:36:55.897Z,92.90
2022-08-26T03:37:55.869Z,97.00
2022-08-26T03:38:55.844Z,94.50
2022-08-26T03:39:55.905Z,89.20
2022-08-26T03:40:55.848Z,92.70
2022-08-26T03:41:55.849Z,91.30
2022-08-26T03:42:55.814Z,91.30
2022-08-26T03:44:00.965Z,96.20
2022-08-26T03:44:55.879Z,91.60
2022-08-26T03:45:55.759Z,90.10
2022-08-26T03:46:55.810Z,85.60
2022-08-26T03:47:55.728Z,87.20
2022-08-26T03:48:55.714Z,89.70
2022-08-26T03:49:55.703Z,92.40
2022-08-26T03:50:55.689Z,93.10
2022-08-26T03:51:55.692Z,86.80
2022-08-26T03:52:55.662Z,89.30
2022-08-26T03:53:55.647Z,85.70
2022-08-26T03:54:55.633Z,90.80
2022-08-26T03:55:55.627Z,93.70
2022-08-26T03:56:55.627Z,91.70
2022-08-26T03:57:55.596Z,91.60
2022-08-26T03:58:55.579Z,99.30
2022-08-26T03:59:55.584Z,93.80
2022-08-26T04:00:55.930Z,99.60
2022-08-26T04:01:55.603Z,92.70
2022-08-26T04:02:55.510Z,91.40
2022-08-26T04:03:55.526Z,89.80
2022-08-26T04:04:55.509Z,91.70
2022-08-26T04:05:55.491Z,95.30
2022-08-26T04:06:55.495Z,89.20
2022-08-26T04:07:55.430Z,83.20
2022-08-26T04:08:55.393Z,86.70
2022-08-26T04:09:55.446Z,86.70
2022-08-26T04:10:55.419Z,90.80
2022-08-26T04:11:55.381Z,85.60
2022-08-26T04:12:55.335Z,88.30
2022-08-26T04:13:55.339Z,81.50
2022-08-26T04:14:55.364Z,83.50
2022-08-26T04:15:55.356Z,77.10
2022-08-26T04:16:55.499Z,86.50
2022-08-26T04:17:56.105Z,82.60
2022-08-26T04:18:55.291Z,78.40
2022-08-26T04:19:55.249Z,76.80
2022-08-26T04:20:55.233Z,71.50
2022-08-26T04:21:55.238Z,74.70
2022-08-26T04:22:55.246Z,72.90
2022-08-26T04:23:55.198Z,78.30
2022-08-26T04:24:55.179Z,75.50
2022-08-26T04:25:55.172Z,69.40
2022-08-26T04:26:55.165Z,66.80
2022-08-26T04:27:55.154Z,73.20
2022-08-26T04:28:55.147Z,70.30
2022-08-26T04:29:55.448Z,70.00
2022-08-26T04:30:55.327Z,67.80
2022-08-26T04:31:55.381Z,64.70
2022-08-26T04:32:55.079Z,63.70
2022-08-26T04:33:55.108Z,72.80
2022-08-26T04:34:55.036Z,63.80
2022-08-26T04:35:55.036Z,61.20
2022-08-26T04:36:55.049Z,64.20
2022-08-26T04:37:55.029Z,71.40
2022-08-26T04:38:54.990Z,57.20
2022-08-26T04:39:55.054Z,66.70
2022-08-26T04:40:54.958Z,61.80
2022-08-26T04:41:54.976Z,64.00
2022-08-26T04:42:54.991Z,60.00
2022-08-26T04:43:54.930Z,59.50
2022-08-26T04:44:54.910Z,61.70
2022-08-26T04:45:54.917Z,62.20
2022-08-26T04:46:55.021Z,65.60
2022-08-26T04:47:54.879Z,56.70
2022-08-26T04:48:54.872Z,56.30
2022-08-26T04:49:54.860Z,59.10
2022-08-26T04:50:54.921Z,59.30
2022-08-26T04:51:54.853Z,64.60
2022-08-26T04:52:54.803Z,58.90
2022-08-26T04:53:54.794Z,60.80
2022-08-26T04:54:54.773Z,55.00
2022-08-26T04:55:55.249Z,55.40
2022-08-26T04:56:54.810Z,58.40
2022-08-26T04:57:54.750Z,51.40
2022-08-26T04:58:54.744Z,46.70
2022-08-26T04:59:54.722Z,54.70
2022-08-26T05:00:55.129Z,56.80
2022-08-26T05:01:54.748Z,51.70
2022-08-26T05:02:54.680Z,51.90
2022-08-26T05:03:54.706Z,46.70
2022-08-26T05:04:54.645Z,53.70
2022-08-26T05:05:54.633Z,42.70
2022-08-26T05:06:59.276Z,45.60
2022-08-26T05:07:54.618Z,43.10
2022-08-26T05:08:54.591Z,43.60
2022-08-26T05:09:54.590Z,50.10
2022-08-26T05:10:54.574Z,46.90
2022-08-26T05:11:54.580Z,50.60
2022-08-26T05:19:59.169Z,42.40
2022-08-26T05:20:59.760Z,41.00
2022-08-26T05:21:59.731Z,37.10
2022-08-26T05:22:59.714Z,41.00
2022-08-26T05:23:59.690Z,40.60
2022-08-26T05:24:59.682Z,35.90
2022-08-26T05:26:00.363Z,41.10
2022-08-26T05:26:59.690Z,37.40
2022-08-26T05:29:54.444Z,35.60
2022-08-26T05:30:54.214Z,43.70
2022-08-26T05:31:54.179Z,37.10
2022-08-26T05:32:55.408Z,34.10
2022-08-26T05:33:54.142Z,41.70
2022-08-26T05:34:54.119Z,34.10
2022-08-26T05:35:54.130Z,37.90
2022-08-26T05:36:54.103Z,31.70
2022-08-26T05:37:54.082Z,36.60
2022-08-26T05:38:54.071Z,31.60
2022-08-26T05:39:54.124Z,35.70
2022-08-26T05:40:54.099Z,36.80
2022-08-26T05:41:54.032Z,37.00
2022-08-26T05:42:54.019Z,31.40
2022-08-26T05:43:54.021Z,30.60
2022-08-26T05:44:56.026Z,28.00
2022-08-26T05:45:54.052Z,30.90
2022-08-26T05:46:53.974Z,31.70
2022-08-26T05:47:53.963Z,26.40
2022-08-26T05:48:53.970Z,39.30
2022-08-26T05:49:53.934Z,34.90
2022-08-26T05:50:53.979Z,32.90
2022-08-26T05:51:53.898Z,32.20
2022-08-26T05:52:53.889Z,35.20
2022-08-26T05:53:54.740Z,32.00
2022-08-26T05:54:53.934Z,32.70
2022-08-26T05:55:54.155Z,33.60
2022-08-26T05:56:53.877Z,34.60
2022-08-26T05:57:53.844Z,33.50
2022-08-26T05:58:53.811Z,33.90
2022-08-26T05:59:53.796Z,28.90
2022-08-26T06:00:53.822Z,30.20
2022-08-26T06:01:53.842Z,30.50
2022-08-26T06:02:53.835Z,27.50
2022-08-26T06:03:53.750Z,35.30
2022-08-26T06:04:53.849Z,30.60
2022-08-26T06:05:53.744Z,30.70
2022-08-26T06:06:53.732Z,30.60
2022-08-26T06:07:53.730Z,26.50
2022-08-26T06:08:53.696Z,28.70
2022-08-26T06:10:01.632Z,31.10
2022-08-26T06:10:53.722Z,28.30
2022-08-26T06:11:53.711Z,28.10
2022-08-26T06:12:53.644Z,23.80
2022-08-26T06:13:53.625Z,31.10
2022-08-26T06:14:53.612Z,24.40
2022-08-26T06:15:53.643Z,30.10
2022-08-26T06:16:53.570Z,21.20
2022-08-26T06:17:53.586Z,30.70
2022-08-26T06:18:53.560Z,27.80
2022-08-26T06:19:53.556Z,21.80
2022-08-26T06:20:57.773Z,26.40
2022-08-26T06:21:54.882Z,22.50
2022-08-26T06:22:53.508Z,23.90
2022-08-26T06:23:53.494Z,27.40
2022-08-26T06:24:53.500Z,29.10
2022-08-26T06:25:53.489Z,23.30
2022-08-26T06:26:53.479Z,22.00
2022-08-26T06:29:53.997Z,27.00
2022-08-26T06:30:55.062Z,23.40
2022-08-26T06:31:56.180Z,27.20
2022-08-26T06:32:55.012Z,24.70
2022-08-26T06:33:54.937Z,24.10
2022-08-26T06:34:54.924Z,29.40
2022-08-26T06:35:54.922Z,28.70
2022-08-26T06:36:54.901Z,34.20
2022-08-26T06:37:54.876Z,25.70
2022-08-26T06:38:54.870Z,36.60
2022-08-26T06:39:54.921Z,29.80
2022-08-26T06:40:54.866Z,34.50
2022-08-26T06:41:54.827Z,25.20
2022-08-26T06:42:54.823Z,27.60
2022-08-26T06:43:54.804Z,25.00
2022-08-26T06:44:54.787Z,21.10
2022-08-26T06:45:54.848Z,21.50
2022-08-26T06:46:54.820Z,23.30
2022-08-26T06:47:54.745Z,23.00
2022-08-26T06:48:54.736Z,26.20
2022-08-26T06:49:54.721Z,27.30
2022-08-26T06:50:54.747Z,21.80
2022-08-26T06:51:54.745Z,27.70
2022-08-26T06:52:54.704Z,35.30
2022-08-26T06:53:54.673Z,35.20
2022-08-26T06:54:54.704Z,30.80
2022-08-26T06:55:54.708Z,28.10
2022-08-26T06:56:54.628Z,29.80
2022-08-26T06:57:54.617Z,25.20
2022-08-26T06:58:54.604Z,28.60
2022-08-26T06:59:54.585Z,30.50
2022-08-26T07:00:54.597Z,31.80
2022-08-26T07:01:54.849Z,28.30
2022-08-26T07:02:54.606Z,25.80
2022-08-26T07:03:54.562Z,22.20
2022-08-26T07:04:54.605Z,26.30
2022-08-26T07:05:54.528Z,27.70
2022-08-26T07:06:54.491Z,25.40
2022-08-26T07:07:54.482Z,24.30
2022-08-26T07:08:54.471Z,26.50
2022-08-26T07:09:54.453Z,23.30
2022-08-26T07:10:55.840Z,25.30
2022-08-26T07:11:54.430Z,21.10
2022-08-26T07:19:53.669Z,21.60
2022-08-26T07:20:54.655Z,23.30
2022-08-26T07:21:54.629Z,21.70
2022-08-26T07:22:54.607Z,21.80
2022-08-26T07:23:58.727Z,17.90
2022-08-26T07:24:54.586Z,19.20
2022-08-26T07:25:54.584Z,17.60
2022-08-26T07:26:54.559Z,17.10
2022-08-26T07:27:54.653Z,18.00
2022-08-26T07:28:54.533Z,18.30
2022-08-26T07:29:54.537Z,19.60
2022-08-26T07:30:54.591Z,16.50
2022-08-26T07:31:54.518Z,21.20
2022-08-26T07:33:00.968Z,25.10
2022-08-26T07:33:54.440Z,20.40
2022-08-26T07:34:54.437Z,25.30
2022-08-26T07:35:54.433Z,29.50
2022-08-26T07:36:55.356Z,19.10
2022-08-26T07:37:57.075Z,23.90
2022-08-26T07:38:54.397Z,17.40
2022-08-26T07:39:54.405Z,18.90
2022-08-26T07:40:54.429Z,24.90
2022-08-26T07:41:54.361Z,15.70
2022-08-26T07:42:54.353Z,20.60
2022-08-26T07:43:54.326Z,15.30
2022-08-26T07:44:54.311Z,16.50
2022-08-26T07:45:54.298Z,19.40
2022-08-26T07:46:54.277Z,16.70
2022-08-26T07:47:54.259Z,24.60
2022-08-26T07:48:54.250Z,19.70
2022-08-26T07:49:54.298Z,29.90
2022-08-26T07:50:54.275Z,20.70
2022-08-26T07:51:54.229Z,17.30
2022-08-26T07:52:54.196Z,16.10
2022-08-26T07:53:54.181Z,16.60
2022-08-26T07:54:54.208Z,20.90
2022-08-26T07:55:54.181Z,18.10
2022-08-26T07:56:54.141Z,17.30
2022-08-26T07:57:54.133Z,22.00
2022-08-26T07:58:54.123Z,23.30
2022-08-26T07:59:55.178Z,26.20
2022-08-26T08:00:54.116Z,15.50
2022-08-26T08:01:54.292Z,15.80
2022-08-26T08:02:54.064Z,15.90
2022-08-26T08:03:54.050Z,20.50
2022-08-26T08:04:54.071Z,20.80
2022-08-26T08:05:54.040Z,20.60
2022-08-26T08:06:54.023Z,22.30
2022-08-26T08:07:54.058Z,18.30
2022-08-26T08:08:53.994Z,16.90
2022-08-26T08:09:53.976Z,18.90
2022-08-26T08:10:54.032Z,16.80
2022-08-26T08:11:53.953Z,19.20
2022-08-26T08:12:53.933Z,15.80
2022-08-26T08:13:56.413Z,21.50
2022-08-26T08:14:53.918Z,15.10
2022-08-26T08:15:53.909Z,21.20
2022-08-26T08:16:54.744Z,15.10
2022-08-26T08:17:55.660Z,21.20
2022-08-26T08:18:53.896Z,18.90
2022-08-26T08:19:53.839Z,24.40
2022-08-26T08:20:59.417Z,16.20
2022-08-26T08:21:53.831Z,22.70
2022-08-26T08:22:53.889Z,16.30
2022-08-26T08:23:53.789Z,24.20
2022-08-26T08:24:53.784Z,20.60
2022-08-26T08:25:53.780Z,18.10
2022-08-26T08:26:53.755Z,18.10
2022-08-26T08:27:53.742Z,19.00
2022-08-26T08:28:53.737Z,15.30
2022-08-26T08:29:53.719Z,15.30
2022-08-26T08:30:53.766Z,14.70
2022-08-26T08:31:57.952Z,15.30
2022-08-26T08:32:53.679Z,15.30
2022-08-26T08:33:53.659Z,14.10
2022-08-26T08:34:53.654Z,12.80
2022-08-26T08:35:53.650Z,13.50
2022-08-26T08:36:53.839Z,21.90
2022-08-26T08:37:53.638Z,16.40
2022-08-26T08:38:53.596Z,12.80
2022-08-26T08:39:53.613Z,19.90
2022-08-26T08:40:53.595Z,14.70
2022-08-26T08:41:53.558Z,13.20
2022-08-26T08:43:53.534Z,20.10
2022-08-26T08:44:53.521Z,19.00
2022-08-26T08:45:53.608Z,14.40
2022-08-26T08:46:53.507Z,17.50
2022-08-26T08:47:54.647Z,20.40
2022-08-26T08:48:53.468Z,19.50
2022-08-26T08:49:53.502Z,19.80
2022-08-26T08:50:53.452Z,21.90
2022-08-26T08:51:53.436Z,15.20
2022-08-26T08:52:53.431Z,15.80
2022-08-26T08:53:54.650Z,15.00
2022-08-26T08:54:53.403Z,13.30
2022-08-26T08:55:53.410Z,17.10
2022-08-26T08:56:53.378Z,18.90
2022-08-26T08:57:53.661Z,14.40
2022-08-26T08:58:53.358Z,13.90
2022-08-26T08:59:53.320Z,14.20
2022-08-26T09:00:53.388Z,17.90
2022-08-26T09:01:54.124Z,15.10
2022-08-26T09:02:53.291Z,12.60
2022-08-26T09:03:53.294Z,14.90
2022-08-26T09:04:53.267Z,15.00
2022-08-26T09:05:53.259Z,12.30
2022-08-26T09:06:53.294Z,14.50
2022-08-26T09:07:53.220Z,11.10
2022-08-26T09:08:53.206Z,11.50
2022-08-26T09:09:53.190Z,11.60
2022-08-26T09:10:53.201Z,10.80
2022-08-26T09:11:53.168Z,15.30
2022-08-26T09:12:53.161Z,11.50
2022-08-26T09:13:53.138Z,14.50
2022-08-26T09:14:53.137Z,11.70
2022-08-26T09:15:53.127Z,16.70
2022-08-26T09:16:53.214Z,16.50
2022-08-26T09:17:53.161Z,11.40
2022-08-26T09:18:53.119Z,11.80
2022-08-26T09:19:53.116Z,11.60
2022-08-26T09:20:53.073Z,13.20
2022-08-26T09:21:53.302Z,14.30
2022-08-26T09:22:53.028Z,11.80
2022-08-26T09:23:53.007Z,10.20
2022-08-26T09:24:53.003Z,11.80
2022-08-26T09:26:52.976Z,13.60
2022-08-26T09:27:53.122Z,16.10
2022-08-26T09:28:52.957Z,12.80
2022-08-26T09:29:52.934Z,11.20
2022-08-26T09:30:52.988Z,12.80
2022-08-26T09:31:52.922Z,11.10
2022-08-26T09:32:55.972Z,13.90
2022-08-26T09:33:52.880Z,13.80
2022-08-26T09:34:52.956Z,10.90
2022-08-26T09:35:52.861Z,12.00
2022-08-26T09:36:52.840Z,9.60
2022-08-26T09:37:52.881Z,11.30
2022-08-26T09:38:52.827Z,10.30
2022-08-26T09:39:52.888Z,16.60
2022-08-26T09:40:58.935Z,12.10
2022-08-26T09:41:52.798Z,10.30
2022-08-26T09:42:52.773Z,10.00
2022-08-26T09:43:52.763Z,11.90
2022-08-26T09:44:52.756Z,12.00
2022-08-26T09:45:54.967Z,14.70
2022-08-26T09:46:52.771Z,16.40
2022-08-26T09:47:52.699Z,13.50
2022-08-26T09:48:53.166Z,13.60
2022-08-26T09:49:52.688Z,14.30
2022-08-26T09:50:52.657Z,12.00
2022-08-26T09:51:52.644Z,11.00
2022-08-26T09:52:52.632Z,11.00
2022-08-26T09:53:52.615Z,10.20
2022-08-26T09:54:52.619Z,18.50
2022-08-26T09:55:52.587Z,16.20
2022-08-26T09:56:52.583Z,12.90
2022-08-26T09:57:52.596Z,16.90
2022-08-26T09:58:52.558Z,15.60
2022-08-26T09:59:52.556Z,9.50
2022-08-26T10:00:52.545Z,9.10
2022-08-26T10:01:52.786Z,10.50
2022-08-26T10:02:54.787Z,12.50
2022-08-26T10:03:52.562Z,10.30
2022-08-26T10:04:52.508Z,16.90
2022-08-26T10:05:52.459Z,12.80
2022-08-26T10:06:52.491Z,9.80
2022-08-26T10:07:52.436Z,11.50
2022-08-26T10:08:52.437Z,13.90
2022-08-26T10:09:52.567Z,13.70
2022-08-26T10:10:53.135Z,15.70
2022-08-26T10:11:52.383Z,16.90
2022-08-26T10:12:52.374Z,13.60
2022-08-26T10:13:52.362Z,19.30
2022-08-26T10:14:52.392Z,26.20
2022-08-26T10:15:52.338Z,19.60
2022-08-26T10:16:52.370Z,17.50
2022-08-26T10:17:52.375Z,23.90
2022-08-26T10:18:54.726Z,25.20
2022-08-26T10:19:57.057Z,23.20
2022-08-26T10:20:52.278Z,23.80
2022-08-26T10:21:54.039Z,18.10
2022-08-26T10:22:52.246Z,17.80
2022-08-26T10:23:52.238Z,16.80
2022-08-26T10:24:55.177Z,16.50
2022-08-26T10:25:52.199Z,16.20
2022-08-26T10:26:52.211Z,20.40
2022-08-26T10:27:53.815Z,24.40
2022-08-26T10:28:52.196Z,22.40
2022-08-26T10:29:52.529Z,18.80
2022-08-26T10:30:52.148Z,17.50
2022-08-26T10:31:52.178Z,20.90
2022-08-26T10:32:52.118Z,16.80
2022-08-26T10:33:55.456Z,18.40
2022-08-26T10:34:52.120Z,15.20
2022-08-26T10:35:52.097Z,15.10
2022-08-26T10:37:14.785Z,12.20
2022-08-26T10:37:52.056Z,13.00
2022-08-26T10:38:52.039Z,19.00
2022-08-26T10:39:56.962Z,15.30
2022-08-26T10:40:52.076Z,11.10
2022-08-26T10:41:52.048Z,11.40
2022-08-26T10:42:51.997Z,19.50
2022-08-26T10:43:51.966Z,12.50
2022-08-26T10:44:51.963Z,14.40
2022-08-26T10:45:52.036Z,24.50
2022-08-26T10:46:51.938Z,9.30
2022-08-26T10:47:51.924Z,11.70
2022-08-26T10:48:52.095Z,10.10
2022-08-26T10:49:51.898Z,11.90
2022-08-26T10:50:51.903Z,8.40
2022-08-26T10:51:51.891Z,7.70
2022-08-26T10:52:51.861Z,9.00
2022-08-26T10:53:51.896Z,8.60
2022-08-26T10:54:51.844Z,13.00
2022-08-26T10:55:51.834Z,9.30
2022-08-26T10:56:51.826Z,8.20
2022-08-26T10:57:51.832Z,9.90
2022-08-26T10:58:51.780Z,9.50
2022-08-26T10:59:51.796Z,7.70
2022-08-26T11:00:51.814Z,7.70
2022-08-26T11:01:52.567Z,7.70
2022-08-26T11:02:51.745Z,12.70
2022-08-26T11:03:51.845Z,12.00
2022-08-26T11:04:51.781Z,8.10
2022-08-26T11:05:51.711Z,10.40
2022-08-26T11:06:51.679Z,10.70
2022-08-26T11:07:51.668Z,11.10
2022-08-26T11:08:51.667Z,12.20
2022-08-26T11:09:51.683Z,7.60
2022-08-26T11:10:51.677Z,6.50
2022-08-26T11:11:51.636Z,10.70
2022-08-26T11:12:51.598Z,15.60
2022-08-26T11:13:51.610Z,12.50
2022-08-26T11:14:56.211Z,9.90
2022-08-26T11:15:51.600Z,12.20
2022-08-26T11:16:51.622Z,6.10
2022-08-26T11:17:51.558Z,9.40
2022-08-26T11:18:51.524Z,10.70
2022-08-26T11:20:01.044Z,9.00
2022-08-26T11:20:51.571Z,8.30
2022-08-26T11:21:51.503Z,5.70
2022-08-26T11:22:51.484Z,7.80
2022-08-26T11:23:52.924Z,7.30
2022-08-26T11:24:51.485Z,7.70
2022-08-26T11:25:51.441Z,10.30
2022-08-26T11:26:56.182Z,8.20
2022-08-26T11:27:51.418Z,9.90
2022-08-26T11:28:51.403Z,9.80
2022-08-26T11:29:51.405Z,7.60
2022-08-26T11:30:56.991Z,12.90
2022-08-26T11:31:51.416Z,13.40
2022-08-26T11:32:51.341Z,7.30
2022-08-26T11:33:51.335Z,8.20
2022-08-26T11:34:51.344Z,6.20
2022-08-26T11:35:52.205Z,12.60
2022-08-26T11:36:51.295Z,7.10
2022-08-26T11:37:51.277Z,6.80
2022-08-26T11:38:51.273Z,10.80
2022-08-26T11:39:54.668Z,7.80
2022-08-26T11:40:51.252Z,9.10
2022-08-26T11:41:52.633Z,8.50
2022-08-26T11:42:51.236Z,5.90
2022-08-26T11:43:51.226Z,8.70
2022-08-26T11:44:51.198Z,7.80
2022-08-26T11:45:51.226Z,7.70
2022-08-26T11:46:51.164Z,8.90
2022-08-26T11:47:51.151Z,7.40
2022-08-26T11:48:51.132Z,8.60
2022-08-26T11:49:51.344Z,9.20
2022-08-26T11:50:51.114Z,7.40
2022-08-26T11:51:51.097Z,9.10
2022-08-26T11:52:51.082Z,7.30
2022-08-26T11:53:51.078Z,7.00
2022-08-26T11:54:51.077Z,7.40
2022-08-26T11:55:51.045Z,7.00
2022-08-26T11:56:51.035Z,8.30
2022-08-26T11:57:51.021Z,11.50
2022-08-26T11:58:51.048Z,7.50
2022-08-26T11:59:51.020Z,9.80
2022-08-26T12:00:50.978Z,6.20
2022-08-26T12:01:50.984Z,8.70
2022-08-26T12:02:50.988Z,7.10
2022-08-26T12:03:51.117Z,6.20
2022-08-26T12:04:51.148Z,6.50
2022-08-26T12:05:51.212Z,6.30
2022-08-26T12:06:50.949Z,6.50
2022-08-26T12:07:50.897Z,7.50
2022-08-26T12:08:50.900Z,6.20
2022-08-26T12:09:50.892Z,9.70
2022-08-26T12:10:50.850Z,6.40
2022-08-26T12:11:50.851Z,7.90
2022-08-26T12:12:50.828Z,8.70
2022-08-26T12:13:50.825Z,6.60
2022-08-26T12:14:50.814Z,7.30
2022-08-26T12:15:50.798Z,7.40
2022-08-26T12:16:50.826Z,9.30
2022-08-26T12:17:54.453Z,5.80
2022-08-26T12:18:50.751Z,6.50
2022-08-26T12:19:50.748Z,12.70
2022-08-26T12:20:50.894Z,5.60
2022-08-26T12:21:50.716Z,7.90
2022-08-26T12:22:50.707Z,7.40
2022-08-26T12:23:50.695Z,7.40
2022-08-26T12:24:50.691Z,9.10
2022-08-26T12:25:50.665Z,29.00
2022-08-26T12:26:50.645Z,12.10
2022-08-26T12:27:53.638Z,12.30
2022-08-26T12:28:50.622Z,11.50
2022-08-26T12:29:50.632Z,5.60
2022-08-26T12:30:50.597Z,7.20
2022-08-26T12:31:50.624Z,10.90
2022-08-26T12:32:57.451Z,8.70
2022-08-26T12:33:50.562Z,6.40
2022-08-26T12:34:50.554Z,7.60
2022-08-26T12:35:54.735Z,9.60
2022-08-26T12:36:50.566Z,5.60
2022-08-26T12:37:50.535Z,6.80
2022-08-26T12:38:50.493Z,11.00
2022-08-26T12:39:50.550Z,5.30
2022-08-26T12:40:50.557Z,8.20
2022-08-26T12:41:50.475Z,12.50
2022-08-26T12:42:50.439Z,8.50
2022-08-26T12:43:50.444Z,11.00
2022-08-26T12:44:53.250Z,9.00
2022-08-26T12:45:50.539Z,7.20
2022-08-26T12:46:50.387Z,7.30
2022-08-26T12:47:50.380Z,7.90
2022-08-26T12:48:50.422Z,8.10
2022-08-26T12:49:50.480Z,6.80
2022-08-26T12:50:50.335Z,6.00
2022-08-26T12:51:50.351Z,10.20
2022-08-26T12:52:50.318Z,10.10
2022-08-26T12:53:50.308Z,6.30
2022-08-26T12:54:53.571Z,6.90
2022-08-26T12:55:50.297Z,6.00
2022-08-26T12:56:50.258Z,5.50
2022-08-26T12:57:50.264Z,8.70
2022-08-26T12:58:50.265Z,8.30
2022-08-26T12:59:50.229Z,7.80
2022-08-26T13:00:50.402Z,5.20
2022-08-26T13:01:50.312Z,8.70
2022-08-26T13:02:50.175Z,6.50
2022-08-26T13:03:50.175Z,5.70
2022-08-26T13:04:50.173Z,5.10
2022-08-26T13:05:50.159Z,5.60
2022-08-26T13:06:50.124Z,7.20
2022-08-26T13:07:50.131Z,5.80
2022-08-26T13:08:50.100Z,6.50
2022-08-26T13:09:50.170Z,5.60
2022-08-26T13:10:50.085Z,7.60
2022-08-26T13:11:50.075Z,6.00
2022-08-26T13:12:50.058Z,5.70
2022-08-26T13:13:50.239Z,4.90
2022-08-26T13:14:50.047Z,6.50
2022-08-26T13:15:50.098Z,6.10
2022-08-26T13:16:49.997Z,7.90
2022-08-26T13:17:50.004Z,7.30